sensor_id;sensor_type;location;lat;lon;timestamp;temperature;humidity
843;DHT22;407;48.884;9.126;2023-01-24T00:02:20;4.20;1.00
843;DHT22;407;48.884;9.126;2023-01-24T00:04:46;4.20;1.00
843;DHT22;407;48.884;9.126;2023-01-24T00:07:13;4.30;1.00
843;DHT22;407;48.884;9.126;2023-01-24T00:09:38;4.10;5.90
843;DHT22;407;48.884;9.126;2023-01-24T00:12:04;4.10;7.10
843;DHT22;407;48.884;9.126;2023-01-24T00:14:30;4.20;48.50
843;DHT22;407;48.884;9.126;2023-01-24T00:16:55;4.10;99.90
843;DHT22;407;48.884;9.126;2023-01-24T00:19:21;4.00;99.90
843;DHT22;407;48.884;9.126;2023-01-24T00:21:46;4.10;99.90
843;DHT22;407;48.884;9.126;2023-01-24T00:24:12;4.00;99.90
843;DHT22;407;48.884;9.126;2023-01-24T00:26:37;3.90;1.00
843;DHT22;407;48.884;9.126;2023-01-24T00:29:03;4.00;1.00
843;DHT22;407;48.884;9.126;2023-01-24T00:31:30;3.90;99.90
843;DHT22;407;48.884;9.126;2023-01-24T00:33:55;3.90;99.90
843;DHT22;407;48.884;9.126;2023-01-24T00:36:21;3.80;1.00
843;DHT22;407;48.884;9.126;2023-01-24T00:38:46;4.70;21.70
843;DHT22;407;48.884;9.126;2023-01-24T00:41:12;3.80;99.90
843;DHT22;407;48.884;9.126;2023-01-24T00:43:38;3.70;99.90
843;DHT22;407;48.884;9.126;2023-01-24T00:46:08;3.70;99.90
843;DHT22;407;48.884;9.126;2023-01-24T00:48:33;3.60;99.90
843;DHT22;407;48.884;9.126;2023-01-24T00:50:59;3.70;99.90
843;DHT22;407;48.884;9.126;2023-01-24T00:53:25;4.40;1.00
843;DHT22;407;48.884;9.126;2023-01-24T00:55:52;3.80;1.00
843;DHT22;407;48.884;9.126;2023-01-24T00:58:20;3.80;99.90
843;DHT22;407;48.884;9.126;2023-01-24T01:00:46;3.90;99.90
843;DHT22;407;48.884;9.126;2023-01-24T01:03:14;3.90;81.90
843;DHT22;407;48.884;9.126;2023-01-24T01:05:40;3.90;27.50
843;DHT22;407;48.884;9.126;2023-01-24T01:08:06;3.90;1.00
843;DHT22;407;48.884;9.126;2023-01-24T01:10:31;4.70;99.90
843;DHT22;407;48.884;9.126;2023-01-24T01:12:57;3.80;1.00
843;DHT22;407;48.884;9.126;2023-01-24T01:15:23;4.60;76.50
843;DHT22;407;48.884;9.126;2023-01-24T01:17:48;3.60;1.00
843;DHT22;407;48.884;9.126;2023-01-24T01:20:15;3.60;99.90
843;DHT22;407;48.884;9.126;2023-01-24T01:22:41;3.50;99.90
843;DHT22;407;48.884;9.126;2023-01-24T01:25:07;3.50;99.90
843;DHT22;407;48.884;9.126;2023-01-24T01:27:32;3.60;1.00
843;DHT22;407;48.884;9.126;2023-01-24T01:29:58;3.70;99.90
843;DHT22;407;48.884;9.126;2023-01-24T01:32:23;3.80;1.00
843;DHT22;407;48.884;9.126;2023-01-24T01:34:49;3.90;99.90
843;DHT22;407;48.884;9.126;2023-01-24T01:37:15;3.80;66.60
843;DHT22;407;48.884;9.126;2023-01-24T01:39:40;3.80;99.90
843;DHT22;407;48.884;9.126;2023-01-24T01:42:06;3.80;99.90
843;DHT22;407;48.884;9.126;2023-01-24T01:44:32;3.90;99.90
843;DHT22;407;48.884;9.126;2023-01-24T01:47:04;3.80;1.00
843;DHT22;407;48.884;9.126;2023-01-24T01:49:31;3.80;99.90
843;DHT22;407;48.884;9.126;2023-01-24T01:52:02;4.80;99.90
843;DHT22;407;48.884;9.126;2023-01-24T01:54:33;3.70;96.10
843;DHT22;407;48.884;9.126;2023-01-24T01:57:10;3.70;99.90
843;DHT22;407;48.884;9.126;2023-01-24T01:59:53;3.80;99.90
843;DHT22;407;48.884;9.126;2023-01-24T02:02:21;4.80;1.00
843;DHT22;407;48.884;9.126;2023-01-24T02:04:55;3.80;63.50
843;DHT22;407;48.884;9.126;2023-01-24T02:07:27;4.70;99.90
843;DHT22;407;48.884;9.126;2023-01-24T02:09:55;3.70;99.90
843;DHT22;407;48.884;9.126;2023-01-24T02:12:38;3.70;99.90
843;DHT22;407;48.884;9.126;2023-01-24T02:15:11;3.90;99.90
843;DHT22;407;48.884;9.126;2023-01-24T02:17:56;2.70;99.90
843;DHT22;407;48.884;9.126;2023-01-24T02:26:04;3.80;1.00
843;DHT22;407;48.884;9.126;2023-01-24T02:28:30;3.60;99.90
843;DHT22;407;48.884;9.126;2023-01-24T02:30:57;3.60;1.00
843;DHT22;407;48.884;9.126;2023-01-24T02:33:23;4.60;1.00
843;DHT22;407;48.884;9.126;2023-01-24T02:35:49;3.60;1.00
843;DHT22;407;48.884;9.126;2023-01-24T02:38:27;3.70;99.90
843;DHT22;407;48.884;9.126;2023-01-24T02:40:55;3.70;1.00
843;DHT22;407;48.884;9.126;2023-01-24T02:43:24;3.80;1.00
843;DHT22;407;48.884;9.126;2023-01-24T02:45:51;4.40;99.90
843;DHT22;407;48.884;9.126;2023-01-24T02:48:16;3.70;99.90
843;DHT22;407;48.884;9.126;2023-01-24T02:50:42;3.80;1.00
843;DHT22;407;48.884;9.126;2023-01-24T02:53:27;4.40;99.90
843;DHT22;407;48.884;9.126;2023-01-24T02:56:00;3.80;5.10
843;DHT22;407;48.884;9.126;2023-01-24T02:58:45;3.90;99.90
843;DHT22;407;48.884;9.126;2023-01-24T03:01:11;4.80;1.00
843;DHT22;407;48.884;9.126;2023-01-24T03:03:36;3.80;99.90
843;DHT22;407;48.884;9.126;2023-01-24T03:06:02;3.70;1.00
843;DHT22;407;48.884;9.126;2023-01-24T03:08:32;3.80;1.00
843;DHT22;407;48.884;9.126;2023-01-24T03:10:58;3.80;1.00
843;DHT22;407;48.884;9.126;2023-01-24T03:13:24;3.80;1.00
843;DHT22;407;48.884;9.126;2023-01-24T03:16:09;3.80;99.90
843;DHT22;407;48.884;9.126;2023-01-24T03:18:54;3.60;1.00
843;DHT22;407;48.884;9.126;2023-01-24T03:21:38;3.70;99.90
843;DHT22;407;48.884;9.126;2023-01-24T03:24:22;3.60;99.90
843;DHT22;407;48.884;9.126;2023-01-24T03:27:07;3.70;1.00
843;DHT22;407;48.884;9.126;2023-01-24T03:29:52;4.80;99.90
843;DHT22;407;48.884;9.126;2023-01-24T03:32:36;3.60;1.00
843;DHT22;407;48.884;9.126;2023-01-24T03:35:20;3.70;99.90
843;DHT22;407;48.884;9.126;2023-01-24T03:37:46;3.60;1.00
843;DHT22;407;48.884;9.126;2023-01-24T03:40:30;3.70;1.00
843;DHT22;407;48.884;9.126;2023-01-24T03:42:56;3.70;99.90
843;DHT22;407;48.884;9.126;2023-01-24T03:45:23;3.70;99.90
843;DHT22;407;48.884;9.126;2023-01-24T03:47:51;3.70;1.00
843;DHT22;407;48.884;9.126;2023-01-24T03:50:25;3.60;1.00
843;DHT22;407;48.884;9.126;2023-01-24T03:53:10;3.50;1.00
843;DHT22;407;48.884;9.126;2023-01-24T03:55:36;3.60;99.90
843;DHT22;407;48.884;9.126;2023-01-24T03:58:02;3.60;99.90
843;DHT22;407;48.884;9.126;2023-01-24T04:00:28;3.60;1.00
843;DHT22;407;48.884;9.126;2023-01-24T04:02:54;3.60;1.00
843;DHT22;407;48.884;9.126;2023-01-24T04:05:20;3.60;99.90
843;DHT22;407;48.884;9.126;2023-01-24T04:07:46;3.60;1.00
843;DHT22;407;48.884;9.126;2023-01-24T04:10:12;3.50;1.00
843;DHT22;407;48.884;9.126;2023-01-24T04:12:42;3.50;99.90
843;DHT22;407;48.884;9.126;2023-01-24T04:15:09;3.60;99.90
843;DHT22;407;48.884;9.126;2023-01-24T04:17:38;3.60;1.00
843;DHT22;407;48.884;9.126;2023-01-24T04:20:04;3.60;99.90
843;DHT22;407;48.884;9.126;2023-01-24T04:22:30;3.60;99.90
843;DHT22;407;48.884;9.126;2023-01-24T04:24:55;3.60;99.90
843;DHT22;407;48.884;9.126;2023-01-24T04:27:21;4.70;37.50
843;DHT22;407;48.884;9.126;2023-01-24T04:29:46;3.70;1.00
843;DHT22;407;48.884;9.126;2023-01-24T04:32:12;3.70;99.90
843;DHT22;407;48.884;9.126;2023-01-24T04:34:39;3.80;99.90
843;DHT22;407;48.884;9.126;2023-01-24T04:37:05;4.70;1.00
843;DHT22;407;48.884;9.126;2023-01-24T04:39:30;3.50;99.90
843;DHT22;407;48.884;9.126;2023-01-24T04:41:56;3.50;99.90
843;DHT22;407;48.884;9.126;2023-01-24T04:44:22;3.60;99.90
843;DHT22;407;48.884;9.126;2023-01-24T04:46:47;3.60;76.80
843;DHT22;407;48.884;9.126;2023-01-24T04:49:13;3.50;99.90
843;DHT22;407;48.884;9.126;2023-01-24T04:51:39;3.50;80.80
843;DHT22;407;48.884;9.126;2023-01-24T04:54:11;4.20;1.00
843;DHT22;407;48.884;9.126;2023-01-24T04:56:36;3.50;1.00
843;DHT22;407;48.884;9.126;2023-01-24T04:59:02;3.60;1.00
843;DHT22;407;48.884;9.126;2023-01-24T05:01:28;3.60;1.00
843;DHT22;407;48.884;9.126;2023-01-24T05:03:53;3.60;1.00
843;DHT22;407;48.884;9.126;2023-01-24T05:06:28;3.40;1.00
843;DHT22;407;48.884;9.126;2023-01-24T05:08:54;3.40;1.00
843;DHT22;407;48.884;9.126;2023-01-24T05:11:21;3.50;99.90
843;DHT22;407;48.884;9.126;2023-01-24T05:13:47;3.40;1.00
843;DHT22;407;48.884;9.126;2023-01-24T05:16:12;3.60;1.00
843;DHT22;407;48.884;9.126;2023-01-24T05:18:38;3.60;99.90
843;DHT22;407;48.884;9.126;2023-01-24T05:21:14;3.50;1.00
843;DHT22;407;48.884;9.126;2023-01-24T05:23:41;3.50;1.00
843;DHT22;407;48.884;9.126;2023-01-24T05:26:07;3.50;99.90
843;DHT22;407;48.884;9.126;2023-01-24T05:28:33;3.50;1.00
843;DHT22;407;48.884;9.126;2023-01-24T05:31:00;4.30;1.00
843;DHT22;407;48.884;9.126;2023-01-24T05:33:26;3.50;1.00
843;DHT22;407;48.884;9.126;2023-01-24T05:36:01;3.60;1.00
843;DHT22;407;48.884;9.126;2023-01-24T05:38:27;3.60;99.90
843;DHT22;407;48.884;9.126;2023-01-24T05:40:53;3.60;1.00
843;DHT22;407;48.884;9.126;2023-01-24T05:43:19;3.80;99.90
843;DHT22;407;48.884;9.126;2023-01-24T05:45:44;3.50;99.90
843;DHT22;407;48.884;9.126;2023-01-24T05:48:10;3.50;1.00
843;DHT22;407;48.884;9.126;2023-01-24T05:50:36;3.50;1.00
843;DHT22;407;48.884;9.126;2023-01-24T05:53:02;3.60;1.00
843;DHT22;407;48.884;9.126;2023-01-24T05:55:28;4.00;99.90
843;DHT22;407;48.884;9.126;2023-01-24T05:57:54;3.60;99.90
843;DHT22;407;48.884;9.126;2023-01-24T06:00:19;3.70;75.20
843;DHT22;407;48.884;9.126;2023-01-24T06:02:45;3.70;1.00
843;DHT22;407;48.884;9.126;2023-01-24T06:05:11;3.60;1.00
843;DHT22;407;48.884;9.126;2023-01-24T06:07:36;3.60;99.90
843;DHT22;407;48.884;9.126;2023-01-24T06:10:02;3.60;1.00
843;DHT22;407;48.884;9.126;2023-01-24T06:12:28;3.80;99.90
843;DHT22;407;48.884;9.126;2023-01-24T06:14:53;3.90;1.00
843;DHT22;407;48.884;9.126;2023-01-24T06:17:19;3.80;1.00
843;DHT22;407;48.884;9.126;2023-01-24T06:19:45;3.90;99.90
843;DHT22;407;48.884;9.126;2023-01-24T06:25:23;3.60;53.70
843;DHT22;407;48.884;9.126;2023-01-24T06:27:50;3.40;99.90
843;DHT22;407;48.884;9.126;2023-01-24T06:30:17;3.50;1.00
843;DHT22;407;48.884;9.126;2023-01-24T06:38:27;3.60;99.90
843;DHT22;407;48.884;9.126;2023-01-24T06:40:55;3.40;1.00
843;DHT22;407;48.884;9.126;2023-01-24T06:43:21;3.50;50.30
843;DHT22;407;48.884;9.126;2023-01-24T06:45:47;3.70;99.90
843;DHT22;407;48.884;9.126;2023-01-24T06:48:13;3.50;96.10
843;DHT22;407;48.884;9.126;2023-01-24T06:50:39;3.70;1.00
843;DHT22;407;48.884;9.126;2023-01-24T06:53:04;4.00;99.90
843;DHT22;407;48.884;9.126;2023-01-24T06:55:30;3.30;1.00
843;DHT22;407;48.884;9.126;2023-01-24T06:57:57;3.30;1.00
843;DHT22;407;48.884;9.126;2023-01-24T07:00:24;3.40;99.90
843;DHT22;407;48.884;9.126;2023-01-24T07:03:16;3.40;99.90
843;DHT22;407;48.884;9.126;2023-01-24T07:05:42;3.40;99.90
843;DHT22;407;48.884;9.126;2023-01-24T07:08:07;3.20;1.00
843;DHT22;407;48.884;9.126;2023-01-24T07:10:33;3.30;99.90
843;DHT22;407;48.884;9.126;2023-01-24T07:12:59;3.30;1.00
843;DHT22;407;48.884;9.126;2023-01-24T07:15:25;3.20;1.00
843;DHT22;407;48.884;9.126;2023-01-24T07:17:50;3.40;41.70
843;DHT22;407;48.884;9.126;2023-01-24T07:20:16;3.20;85.00
843;DHT22;407;48.884;9.126;2023-01-24T07:22:43;3.30;1.00
843;DHT22;407;48.884;9.126;2023-01-24T07:25:13;3.30;1.00
843;DHT22;407;48.884;9.126;2023-01-24T07:27:41;3.30;1.00
843;DHT22;407;48.884;9.126;2023-01-24T07:30:08;3.40;1.00
843;DHT22;407;48.884;9.126;2023-01-24T07:32:34;3.40;1.00
843;DHT22;407;48.884;9.126;2023-01-24T07:34:59;3.40;1.00
843;DHT22;407;48.884;9.126;2023-01-24T07:37:25;3.40;99.90
843;DHT22;407;48.884;9.126;2023-01-24T07:39:50;3.30;1.00
843;DHT22;407;48.884;9.126;2023-01-24T07:42:16;3.40;1.00
843;DHT22;407;48.884;9.126;2023-01-24T07:44:41;3.50;99.90
843;DHT22;407;48.884;9.126;2023-01-24T07:47:07;3.40;99.90
843;DHT22;407;48.884;9.126;2023-01-24T07:49:32;3.40;1.00
843;DHT22;407;48.884;9.126;2023-01-24T07:51:58;4.00;1.00
843;DHT22;407;48.884;9.126;2023-01-24T07:54:23;3.40;99.90
843;DHT22;407;48.884;9.126;2023-01-24T07:56:49;3.50;99.90
843;DHT22;407;48.884;9.126;2023-01-24T07:59:15;3.50;99.90
843;DHT22;407;48.884;9.126;2023-01-24T08:01:40;3.50;99.90
843;DHT22;407;48.884;9.126;2023-01-24T08:04:06;3.60;15.30
843;DHT22;407;48.884;9.126;2023-01-24T08:06:32;3.50;99.90
843;DHT22;407;48.884;9.126;2023-01-24T08:08:57;3.50;99.90
843;DHT22;407;48.884;9.126;2023-01-24T08:11:23;3.60;45.60
843;DHT22;407;48.884;9.126;2023-01-24T08:13:49;4.60;1.00
843;DHT22;407;48.884;9.126;2023-01-24T08:16:15;3.40;99.90
843;DHT22;407;48.884;9.126;2023-01-24T08:18:41;3.30;99.90
843;DHT22;407;48.884;9.126;2023-01-24T08:21:07;3.50;1.00
843;DHT22;407;48.884;9.126;2023-01-24T08:23:33;3.70;99.90
843;DHT22;407;48.884;9.126;2023-01-24T08:26:00;3.70;1.00
843;DHT22;407;48.884;9.126;2023-01-24T08:28:26;3.80;99.90
843;DHT22;407;48.884;9.126;2023-01-24T08:30:52;4.00;22.50
843;DHT22;407;48.884;9.126;2023-01-24T08:33:17;4.90;97.20
843;DHT22;407;48.884;9.126;2023-01-24T08:35:45;3.80;1.00
843;DHT22;407;48.884;9.126;2023-01-24T08:38:11;3.70;1.00
843;DHT22;407;48.884;9.126;2023-01-24T08:40:37;3.60;99.90
843;DHT22;407;48.884;9.126;2023-01-24T08:43:03;3.70;1.00
843;DHT22;407;48.884;9.126;2023-01-24T08:45:29;3.80;1.00
843;DHT22;407;48.884;9.126;2023-01-24T08:47:55;3.90;99.90
843;DHT22;407;48.884;9.126;2023-01-24T08:50:21;3.90;1.00
843;DHT22;407;48.884;9.126;2023-01-24T08:52:47;3.90;1.00
843;DHT22;407;48.884;9.126;2023-01-24T08:55:13;4.00;99.90
843;DHT22;407;48.884;9.126;2023-01-24T08:57:39;4.00;1.00
843;DHT22;407;48.884;9.126;2023-01-24T09:00:05;3.90;99.90
843;DHT22;407;48.884;9.126;2023-01-24T09:02:31;3.90;56.50
843;DHT22;407;48.884;9.126;2023-01-24T09:04:58;4.90;99.90
843;DHT22;407;48.884;9.126;2023-01-24T09:07:23;5.00;99.90
843;DHT22;407;48.884;9.126;2023-01-24T09:09:49;4.00;99.90
843;DHT22;407;48.884;9.126;2023-01-24T09:12:15;4.00;1.00
843;DHT22;407;48.884;9.126;2023-01-24T09:14:40;5.00;1.00
843;DHT22;407;48.884;9.126;2023-01-24T09:17:06;3.90;99.90
843;DHT22;407;48.884;9.126;2023-01-24T09:19:31;3.90;1.00
843;DHT22;407;48.884;9.126;2023-01-24T09:21:57;4.30;1.00
843;DHT22;407;48.884;9.126;2023-01-24T09:24:23;4.10;99.90
843;DHT22;407;48.884;9.126;2023-01-24T09:26:49;4.20;99.90
843;DHT22;407;48.884;9.126;2023-01-24T09:29:15;5.30;99.90
843;DHT22;407;48.884;9.126;2023-01-24T09:31:40;4.30;1.00
843;DHT22;407;48.884;9.126;2023-01-24T09:34:06;4.10;1.00
843;DHT22;407;48.884;9.126;2023-01-24T09:36:31;4.20;1.00
843;DHT22;407;48.884;9.126;2023-01-24T09:38:57;4.00;99.90
843;DHT22;407;48.884;9.126;2023-01-24T09:41:42;4.80;99.90
843;DHT22;407;48.884;9.126;2023-01-24T09:44:38;4.00;1.00
843;DHT22;407;48.884;9.126;2023-01-24T09:47:17;4.00;99.90
843;DHT22;407;48.884;9.126;2023-01-24T09:49:54;4.00;99.90
843;DHT22;407;48.884;9.126;2023-01-24T09:52:41;4.20;99.90
843;DHT22;407;48.884;9.126;2023-01-24T10:00:28;4.30;1.00
843;DHT22;407;48.884;9.126;2023-01-24T10:02:56;4.50;99.90
843;DHT22;407;48.884;9.126;2023-01-24T10:05:37;4.90;99.90
843;DHT22;407;48.884;9.126;2023-01-24T10:13:45;4.30;99.90
843;DHT22;407;48.884;9.126;2023-01-24T10:16:26;4.40;99.90
843;DHT22;407;48.884;9.126;2023-01-24T10:25:23;4.50;1.00
843;DHT22;407;48.884;9.126;2023-01-24T10:27:53;4.50;1.00
843;DHT22;407;48.884;9.126;2023-01-24T10:30:28;4.40;99.90
843;DHT22;407;48.884;9.126;2023-01-24T10:33:15;5.00;99.90
843;DHT22;407;48.884;9.126;2023-01-24T10:35:57;4.70;99.90
843;DHT22;407;48.884;9.126;2023-01-24T10:38:23;4.90;99.90
843;DHT22;407;48.884;9.126;2023-01-24T10:41:08;5.30;1.00
843;DHT22;407;48.884;9.126;2023-01-24T10:43:34;4.80;1.00
843;DHT22;407;48.884;9.126;2023-01-24T10:48:49;4.90;1.00
843;DHT22;407;48.884;9.126;2023-01-24T10:51:21;5.80;1.00
843;DHT22;407;48.884;9.126;2023-01-24T10:53:48;4.80;1.00
843;DHT22;407;48.884;9.126;2023-01-24T10:56:16;4.80;1.00
843;DHT22;407;48.884;9.126;2023-01-24T11:01:19;5.10;99.90
843;DHT22;407;48.884;9.126;2023-01-24T11:03:47;5.10;99.90
843;DHT22;407;48.884;9.126;2023-01-24T11:06:39;5.10;99.90
843;DHT22;407;48.884;9.126;2023-01-24T11:09:18;4.70;99.90
843;DHT22;407;48.884;9.126;2023-01-24T11:11:53;4.60;99.90
843;DHT22;407;48.884;9.126;2023-01-24T11:14:22;5.30;99.90
843;DHT22;407;48.884;9.126;2023-01-24T11:16:51;4.70;99.90
843;DHT22;407;48.884;9.126;2023-01-24T11:19:32;4.70;99.90
843;DHT22;407;48.884;9.126;2023-01-24T11:22:01;4.90;99.90
843;DHT22;407;48.884;9.126;2023-01-24T11:24:28;5.00;1.00
843;DHT22;407;48.884;9.126;2023-01-24T11:27:04;5.20;99.90
843;DHT22;407;48.884;9.126;2023-01-24T11:29:30;5.10;99.90
843;DHT22;407;48.884;9.126;2023-01-24T11:32:05;5.10;99.90
843;DHT22;407;48.884;9.126;2023-01-24T11:35:03;5.10;99.90
843;DHT22;407;48.884;9.126;2023-01-24T11:40:32;5.10;99.90
843;DHT22;407;48.884;9.126;2023-01-24T11:56:53;5.00;99.90
843;DHT22;407;48.884;9.126;2023-01-24T12:05:04;5.30;99.90
843;DHT22;407;48.884;9.126;2023-01-24T12:07:45;5.20;99.90
843;DHT22;407;48.884;9.126;2023-01-24T12:15:38;5.00;99.90
843;DHT22;407;48.884;9.126;2023-01-24T12:23:24;5.00;99.90
843;DHT22;407;48.884;9.126;2023-01-24T12:25:55;5.10;99.90
843;DHT22;407;48.884;9.126;2023-01-24T12:28:31;5.20;99.90
843;DHT22;407;48.884;9.126;2023-01-24T12:31:00;5.20;99.90
843;DHT22;407;48.884;9.126;2023-01-24T12:33:44;5.10;99.90
843;DHT22;407;48.884;9.126;2023-01-24T12:36:18;5.20;99.90
843;DHT22;407;48.884;9.126;2023-01-24T12:38:52;5.10;99.90
843;DHT22;407;48.884;9.126;2023-01-24T12:41:34;5.30;99.90
843;DHT22;407;48.884;9.126;2023-01-24T12:44:33;4.90;1.00
843;DHT22;407;48.884;9.126;2023-01-24T12:50:01;5.70;99.90
843;DHT22;407;48.884;9.126;2023-01-24T12:52:47;5.10;1.00
843;DHT22;407;48.884;9.126;2023-01-24T12:57:49;4.70;1.00
843;DHT22;407;48.884;9.126;2023-01-24T13:00:21;4.70;14.10
843;DHT22;407;48.884;9.126;2023-01-24T13:05:44;4.70;99.90
843;DHT22;407;48.884;9.126;2023-01-24T13:08:31;4.80;1.00
843;DHT22;407;48.884;9.126;2023-01-24T13:11:15;4.90;1.00
843;DHT22;407;48.884;9.126;2023-01-24T13:16:40;4.80;1.00
843;DHT22;407;48.884;9.126;2023-01-24T13:19:13;4.80;1.00
843;DHT22;407;48.884;9.126;2023-01-24T13:27:28;4.60;99.90
843;DHT22;407;48.884;9.126;2023-01-24T13:32:30;4.20;99.90
843;DHT22;407;48.884;9.126;2023-01-24T13:35:00;4.60;1.00
843;DHT22;407;48.884;9.126;2023-01-24T13:37:28;4.60;99.90
843;DHT22;407;48.884;9.126;2023-01-24T13:42:37;4.40;99.90
843;DHT22;407;48.884;9.126;2023-01-24T13:47:49;4.10;1.00
843;DHT22;407;48.884;9.126;2023-01-24T13:50:17;4.40;1.00
843;DHT22;407;48.884;9.126;2023-01-24T13:52:45;4.30;1.00
843;DHT22;407;48.884;9.126;2023-01-24T13:57:43;4.50;1.00
843;DHT22;407;48.884;9.126;2023-01-24T14:02:59;4.50;1.00
843;DHT22;407;48.884;9.126;2023-01-24T14:08:41;4.30;1.00
843;DHT22;407;48.884;9.126;2023-01-24T14:10:50;4.40;45.80
843;DHT22;407;48.884;9.126;2023-01-24T14:19:12;4.30;99.90
843;DHT22;407;48.884;9.126;2023-01-24T14:21:57;5.00;1.00
843;DHT22;407;48.884;9.126;2023-01-24T14:24:29;4.10;99.90
843;DHT22;407;48.884;9.126;2023-01-24T14:26:58;4.10;1.00
843;DHT22;407;48.884;9.126;2023-01-24T14:29:37;4.70;1.00
843;DHT22;407;48.884;9.126;2023-01-24T14:32:14;5.00;99.90
843;DHT22;407;48.884;9.126;2023-01-24T14:34:45;3.90;1.00
843;DHT22;407;48.884;9.126;2023-01-24T14:37:17;3.70;99.90
843;DHT22;407;48.884;9.126;2023-01-24T14:39:42;3.70;2.00
843;DHT22;407;48.884;9.126;2023-01-24T14:42:15;4.20;99.90
843;DHT22;407;48.884;9.126;2023-01-24T14:44:52;3.80;35.00
843;DHT22;407;48.884;9.126;2023-01-24T14:47:24;3.90;1.00
843;DHT22;407;48.884;9.126;2023-01-24T14:49:52;3.80;99.90
843;DHT22;407;48.884;9.126;2023-01-24T14:52:27;3.90;99.90
843;DHT22;407;48.884;9.126;2023-01-24T14:54:54;3.80;99.90
843;DHT22;407;48.884;9.126;2023-01-24T14:57:28;3.60;1.00
843;DHT22;407;48.884;9.126;2023-01-24T15:00:15;3.70;1.00
843;DHT22;407;48.884;9.126;2023-01-24T15:05:37;3.60;17.80
843;DHT22;407;48.884;9.126;2023-01-24T15:08:05;3.70;26.20
843;DHT22;407;48.884;9.126;2023-01-24T15:13:01;3.60;1.00
843;DHT22;407;48.884;9.126;2023-01-24T15:15:27;3.50;1.00
843;DHT22;407;48.884;9.126;2023-01-24T15:18:19;3.60;1.50
843;DHT22;407;48.884;9.126;2023-01-24T15:20:48;3.60;1.00
843;DHT22;407;48.884;9.126;2023-01-24T15:23:19;3.70;1.00
843;DHT22;407;48.884;9.126;2023-01-24T15:25:47;3.80;99.90
843;DHT22;407;48.884;9.126;2023-01-24T15:28:30;3.70;99.90
843;DHT22;407;48.884;9.126;2023-01-24T15:30:57;3.50;1.00
843;DHT22;407;48.884;9.126;2023-01-24T15:33:24;3.70;1.00
843;DHT22;407;48.884;9.126;2023-01-24T15:35:51;4.90;1.00
843;DHT22;407;48.884;9.126;2023-01-24T15:38:23;3.70;1.00
843;DHT22;407;48.884;9.126;2023-01-24T15:40:55;3.80;1.00
843;DHT22;407;48.884;9.126;2023-01-24T15:46:23;3.90;1.00
843;DHT22;407;48.884;9.126;2023-01-24T15:51:42;4.00;1.00
843;DHT22;407;48.884;9.126;2023-01-24T15:54:13;4.00;1.00
843;DHT22;407;48.884;9.126;2023-01-24T15:56:41;4.00;1.00
843;DHT22;407;48.884;9.126;2023-01-24T15:59:16;3.80;99.90
843;DHT22;407;48.884;9.126;2023-01-24T16:01:42;3.70;99.90
843;DHT22;407;48.884;9.126;2023-01-24T16:04:19;3.70;99.90
843;DHT22;407;48.884;9.126;2023-01-24T16:06:45;3.70;1.00
843;DHT22;407;48.884;9.126;2023-01-24T16:09:11;3.70;1.00
843;DHT22;407;48.884;9.126;2023-01-24T16:11:41;3.70;1.00
843;DHT22;407;48.884;9.126;2023-01-24T16:14:14;3.60;1.00
843;DHT22;407;48.884;9.126;2023-01-24T16:16:40;3.50;1.00
843;DHT22;407;48.884;9.126;2023-01-24T16:19:24;3.50;63.90
843;DHT22;407;48.884;9.126;2023-01-24T16:21:50;3.40;99.90
843;DHT22;407;48.884;9.126;2023-01-24T16:24:16;3.40;99.90
843;DHT22;407;48.884;9.126;2023-01-24T16:26:48;3.60;99.90
843;DHT22;407;48.884;9.126;2023-01-24T16:29:16;3.50;99.90
843;DHT22;407;48.884;9.126;2023-01-24T16:31:43;3.50;85.70
843;DHT22;407;48.884;9.126;2023-01-24T16:34:09;3.50;99.90
843;DHT22;407;48.884;9.126;2023-01-24T16:36:35;3.50;99.90
843;DHT22;407;48.884;9.126;2023-01-24T16:39:01;3.60;90.60
843;DHT22;407;48.884;9.126;2023-01-24T16:41:28;3.40;99.90
843;DHT22;407;48.884;9.126;2023-01-24T16:43:54;3.40;99.90
843;DHT22;407;48.884;9.126;2023-01-24T16:46:20;3.40;99.90
843;DHT22;407;48.884;9.126;2023-01-24T16:48:48;3.40;99.90
843;DHT22;407;48.884;9.126;2023-01-24T16:51:15;3.60;99.90
843;DHT22;407;48.884;9.126;2023-01-24T16:53:41;3.40;99.90
843;DHT22;407;48.884;9.126;2023-01-24T16:56:07;3.40;99.90
843;DHT22;407;48.884;9.126;2023-01-24T16:58:36;3.40;99.90
843;DHT22;407;48.884;9.126;2023-01-24T17:01:11;3.50;99.90
843;DHT22;407;48.884;9.126;2023-01-24T17:03:36;3.50;92.10
843;DHT22;407;48.884;9.126;2023-01-24T17:06:10;3.50;99.90
843;DHT22;407;48.884;9.126;2023-01-24T17:08:37;3.60;73.20
843;DHT22;407;48.884;9.126;2023-01-24T17:11:08;4.70;99.90
843;DHT22;407;48.884;9.126;2023-01-24T17:13:35;3.80;99.90
843;DHT22;407;48.884;9.126;2023-01-24T17:16:06;3.20;99.90
843;DHT22;407;48.884;9.126;2023-01-24T17:18:32;3.20;99.90
843;DHT22;407;48.884;9.126;2023-01-24T17:21:07;3.00;1.00
843;DHT22;407;48.884;9.126;2023-01-24T17:23:34;3.00;1.00
843;DHT22;407;48.884;9.126;2023-01-24T17:26:02;3.20;1.00
843;DHT22;407;48.884;9.126;2023-01-24T17:28:28;3.40;99.90
843;DHT22;407;48.884;9.126;2023-01-24T17:30:54;4.00;99.90
843;DHT22;407;48.884;9.126;2023-01-24T17:33:19;3.40;99.90
843;DHT22;407;48.884;9.126;2023-01-24T17:35:45;3.40;99.90
843;DHT22;407;48.884;9.126;2023-01-24T17:38:10;3.60;99.90
843;DHT22;407;48.884;9.126;2023-01-24T17:40:37;3.70;99.90
843;DHT22;407;48.884;9.126;2023-01-24T17:43:03;3.40;99.90
843;DHT22;407;48.884;9.126;2023-01-24T17:45:28;3.40;99.90
843;DHT22;407;48.884;9.126;2023-01-24T17:47:54;3.20;99.90
843;DHT22;407;48.884;9.126;2023-01-24T17:50:20;3.30;1.00
843;DHT22;407;48.884;9.126;2023-01-24T17:52:45;3.20;99.90
843;DHT22;407;48.884;9.126;2023-01-24T17:55:11;3.30;99.90
843;DHT22;407;48.884;9.126;2023-01-24T17:57:37;3.40;99.90
843;DHT22;407;48.884;9.126;2023-01-24T18:00:03;3.30;1.00
843;DHT22;407;48.884;9.126;2023-01-24T18:02:29;3.40;1.00
843;DHT22;407;48.884;9.126;2023-01-24T18:04:55;3.20;1.00
843;DHT22;407;48.884;9.126;2023-01-24T18:07:20;3.20;1.00
843;DHT22;407;48.884;9.126;2023-01-24T18:09:46;3.00;1.00
843;DHT22;407;48.884;9.126;2023-01-24T18:12:11;3.10;1.00
843;DHT22;407;48.884;9.126;2023-01-24T18:14:37;3.20;1.00
843;DHT22;407;48.884;9.126;2023-01-24T18:17:06;3.30;1.00
843;DHT22;407;48.884;9.126;2023-01-24T18:19:31;3.40;1.00
843;DHT22;407;48.884;9.126;2023-01-24T18:21:57;3.40;1.00
843;DHT22;407;48.884;9.126;2023-01-24T18:24:23;3.40;1.00
843;DHT22;407;48.884;9.126;2023-01-24T18:26:49;3.70;1.00
843;DHT22;407;48.884;9.126;2023-01-24T18:29:15;3.50;1.00
843;DHT22;407;48.884;9.126;2023-01-24T18:31:42;3.60;1.00
843;DHT22;407;48.884;9.126;2023-01-24T18:34:09;3.50;1.00
843;DHT22;407;48.884;9.126;2023-01-24T18:36:36;3.50;1.00
843;DHT22;407;48.884;9.126;2023-01-24T18:39:02;3.30;1.00
843;DHT22;407;48.884;9.126;2023-01-24T18:41:28;4.20;1.00
843;DHT22;407;48.884;9.126;2023-01-24T18:43:57;4.00;1.00
843;DHT22;407;48.884;9.126;2023-01-24T18:46:22;3.40;1.00
843;DHT22;407;48.884;9.126;2023-01-24T18:48:48;3.30;1.00
843;DHT22;407;48.884;9.126;2023-01-24T18:51:16;4.40;1.00
843;DHT22;407;48.884;9.126;2023-01-24T18:53:44;4.30;1.00
843;DHT22;407;48.884;9.126;2023-01-24T18:56:10;3.20;1.00
843;DHT22;407;48.884;9.126;2023-01-24T18:58:36;3.20;1.00
843;DHT22;407;48.884;9.126;2023-01-24T19:01:11;3.40;1.00
843;DHT22;407;48.884;9.126;2023-01-24T19:03:37;3.20;1.00
843;DHT22;407;48.884;9.126;2023-01-24T19:06:03;3.10;1.00
843;DHT22;407;48.884;9.126;2023-01-24T19:08:28;3.20;1.00
843;DHT22;407;48.884;9.126;2023-01-24T19:10:54;3.00;1.00
843;DHT22;407;48.884;9.126;2023-01-24T19:13:20;2.80;1.00